KOFK/OFK METAR and TAF weather

Enter ICAO airport designator
Station Type Date Time Source
KOFK METAR 2022/12/05 14:56 UTC NOAA

KOFK 051456Z AUTO 35013G21KT 10SM CLR M02/M06 A2983 RMK AO2 SLP116 T10171061 51026


Station Type Date Time Source
KOFK Decoded METAR 2022/12/05 14:56 UTC NOAA

KARL STEFAN MEMORIAL AIRPORT, NE, United States (KOFK) 41-59N 097-26W 470M
Dec 05, 2022 - 09:56 AM EST / 2022.12.05 1456 UTC
Wind: from the N (350 degrees) at 15 MPH (13 KT) gusting to 24 MPH (21 KT):0
Visibility: 10 mile(s):0
Sky conditions: clear
Temperature: 28.9 F (-1.7 C)
Windchill: 17 F (-8 C):1
Dew Point: 21.0 F (-6.1 C)
Relative Humidity: 71%
Pressure (altimeter): 29.83 in. Hg (1010 hPa)
Pressure tendency: 0.08 inches (2.6 hPa) higher than three hours ago
ob: KOFK 051456Z AUTO 35013G21KT 10SM CLR M02/M06 A2983 RMK AO2 SLP116 T10171061 51026
cycle: 15

Station Type Date Time Source
KOFK TAF 2022/12/05 12:22 UTC NOAA

TAF KOFK 051120Z 0512/0612 32008KT P6SM BKN250
FM051500 35012G25KT P6SM SCT250
FM060100 01007KT P6SM BKN070 PROB30 0606/0612 4SM -SN BR OVC025

Example: see airport list